Assiniboia, Canada
Current Conditions -  °F | °C
As of 7:00 PM on Sunday 21 Dec 2014 (Local Time) from CYQR Reporting Station
Overcast Overcast  
Wind Chill: 11°   Ceiling: 7000
Heat Index: 23°   Visibility: 15mi
Dew Point: 23°   Wind: 14mph
Humidity: 100%   Direction: 90°E
Pressure: 29.38"   Gusts: NA
Location:  49.63°N, 105.99°W
Report Text: CYQR 220100Z 09012KT 15SM OVC070 M05/M05 A2938 RMK AC8 SLP986
Loading
Personal Weather Stations






























Interactive Weather Map New forecast layout! Learn more

10-Day Weather Forecast

Advertisements
Track Severe Weather on mobile